Ama, Louisiana
Current Conditions -  °F | °C
As of 2:53 PM on Friday 28 Nov 2014 (Local Time) from KMSY Reporting Station
Few Clouds Few Clouds  
Wind Chill: 16°   Ceiling: Unl
Heat Index: 16°   Visibility: 10mi
Dew Point:   Wind: 7mph
Humidity: 48%   Direction: NA
Pressure: 30.3"   Gusts: NA
Location:  29.95°N, 90.3°W
Report Text: KMSY 282053Z VRB06KT 10SM FEW010 16/05 A3030 RMK AO2 SLP263 FU FEW010 T01610050 56026
Loading
Personal Weather Stations






























Interactive Weather Map New forecast layout! Learn more

10-Day Weather Forecast

Advertisements
Track Severe Weather on mobile